createdAt,value
2018-04-08T00:02:01.086Z,95376.94
2018-04-08T00:04:28.915Z,95377.27
2018-04-08T00:06:57.490Z,95377.13
2018-04-08T00:09:25.231Z,95380.48
2018-04-08T00:11:52.911Z,95384.34
2018-04-08T00:14:20.651Z,95377.84
2018-04-08T00:16:49.190Z,95384.68
2018-04-08T00:19:16.948Z,95384.22
2018-04-08T00:21:44.698Z,95389.63
2018-04-08T00:24:12.613Z,95386.08
2018-04-08T00:26:40.370Z,95391.20
2018-04-08T00:29:08.153Z,95388.96
2018-04-08T00:31:35.872Z,95389.03
2018-04-08T00:34:03.558Z,95386.49
2018-04-08T00:36:31.308Z,95391.14
2018-04-08T00:38:59.074Z,95393.77
2018-04-08T00:41:26.760Z,95394.66
2018-04-08T00:43:54.655Z,95397.19
2018-04-08T00:46:22.737Z,95391.34
2018-04-08T00:48:50.556Z,95396.94
2018-04-08T00:51:18.288Z,95395.32
2018-04-08T00:53:46.561Z,95403.48
2018-04-08T00:56:14.338Z,95401.75
2018-04-08T00:58:42.085Z,95400.50
2018-04-08T01:01:09.822Z,95404.69
2018-04-08T01:03:37.550Z,95396.44
2018-04-08T01:06:05.234Z,95399.02
2018-04-08T01:08:33.194Z,95400.20
2018-04-08T01:11:00.975Z,95391.36
2018-04-08T01:13:28.680Z,95396.83
2018-04-08T01:15:56.422Z,95396.32
2018-04-08T01:18:24.251Z,95386.58
2018-04-08T01:20:51.951Z,95393.08
2018-04-08T01:23:20.559Z,95390.40
2018-04-08T01:25:48.251Z,95383.45
2018-04-08T01:28:16.878Z,95386.05
2018-04-08T01:30:45.522Z,95390.59
2018-04-08T01:33:13.265Z,95376.30
2018-04-08T01:35:41.132Z,95377.48
2018-04-08T01:38:08.883Z,95376.52
2018-04-08T01:40:36.626Z,95376.48
2018-04-08T01:43:04.360Z,95372.78
2018-04-08T01:45:33.096Z,95377.95
2018-04-08T01:48:00.845Z,95379.22
2018-04-08T01:50:28.628Z,95375.79
2018-04-08T01:52:56.381Z,95368.34
2018-04-08T01:55:24.159Z,95374.10
2018-04-08T01:57:52.021Z,95370.23
2018-04-08T02:00:20.087Z,95374.92
2018-04-08T02:02:48.663Z,95376.22
2018-04-08T02:05:16.378Z,95370.62
2018-04-08T02:07:44.117Z,95381.00
2018-04-08T02:10:11.852Z,95371.94
2018-04-08T02:12:39.614Z,95366.56
2018-04-08T02:15:07.342Z,95362.16
2018-04-08T02:17:35.187Z,95365.78
2018-04-08T02:20:02.933Z,95368.04
2018-04-08T02:22:30.719Z,95369.76
2018-04-08T02:24:58.422Z,95364.22
2018-04-08T02:27:26.918Z,95360.58
2018-04-08T02:29:54.619Z,95362.27
2018-04-08T02:32:22.456Z,95362.73
2018-04-08T02:34:50.234Z,95361.48
2018-04-08T02:37:18.083Z,95364.10
2018-04-08T02:39:45.818Z,95366.69
2018-04-08T02:42:13.575Z,95367.79
2018-04-08T02:44:41.694Z,95362.53
2018-04-08T02:47:09.549Z,95359.91
2018-04-08T02:49:37.298Z,95360.61
2018-04-08T02:52:05.058Z,95358.75
2018-04-08T02:54:33.087Z,95359.80
2018-04-08T02:57:01.086Z,95361.09
2018-04-08T02:59:28.839Z,95360.70
2018-04-08T03:01:56.584Z,95365.36
2018-04-08T03:04:24.334Z,95364.22
2018-04-08T03:06:52.058Z,95356.95
2018-04-08T03:09:19.826Z,95358.63
2018-04-08T03:11:47.662Z,95364.39
2018-04-08T03:14:15.469Z,95353.86
2018-04-08T03:16:43.965Z,95363.61
2018-04-08T03:19:11.720Z,95358.11
2018-04-08T03:21:39.998Z,95363.09
2018-04-08T03:24:07.780Z,95366.44
2018-04-08T03:26:36.440Z,95369.45
2018-04-08T03:29:04.193Z,95373.45
2018-04-08T03:31:31.974Z,95374.98
2018-04-08T03:34:00.747Z,95380.34
2018-04-08T03:36:28.596Z,95378.51
2018-04-08T03:38:56.551Z,95380.31
2018-04-08T03:41:24.304Z,95379.58
2018-04-08T03:43:53.095Z,95376.51
2018-04-08T03:46:21.403Z,95373.29
2018-04-08T03:48:49.131Z,95375.34
2018-04-08T03:51:16.831Z,95379.84
2018-04-08T03:53:44.640Z,95377.27
2018-04-08T03:56:12.533Z,95379.05
2018-04-08T03:58:40.408Z,95382.10
2018-04-08T04:01:08.716Z,95376.71
2018-04-08T04:03:37.385Z,95377.39
2018-04-08T04:06:05.170Z,95383.52
2018-04-08T04:08:32.936Z,95388.80
2018-04-08T04:11:01.158Z,95392.06
2018-04-08T04:13:29.970Z,95396.91
2018-04-08T04:15:58.928Z,95401.02
2018-04-08T04:18:38.445Z,95400.94
2018-04-08T04:21:19.013Z,95401.55
2018-04-08T04:23:59.154Z,95395.41
2018-04-08T04:26:31.906Z,95404.63
2018-04-08T04:28:59.664Z,95391.55
2018-04-08T04:31:27.599Z,95395.78
2018-04-08T04:33:55.601Z,95402.75
2018-04-08T04:36:24.177Z,95406.42
2018-04-08T04:38:51.934Z,95405.27
2018-04-08T04:41:20.411Z,95402.84
2018-04-08T04:43:49.135Z,95402.17
2018-04-08T04:46:16.874Z,95403.86
2018-04-08T04:48:45.707Z,95404.16
2018-04-08T04:51:14.377Z,95401.70
2018-04-08T04:53:42.319Z,95404.56
2018-04-08T04:56:10.476Z,95398.56
2018-04-08T04:58:39.037Z,95403.15
2018-04-08T05:01:07.853Z,95399.61
2018-04-08T05:03:35.718Z,95405.70
2018-04-08T05:06:03.517Z,95413.13
2018-04-08T05:08:32.144Z,95407.86
2018-04-08T05:11:00.667Z,95411.50
2018-04-08T05:13:28.753Z,95409.77
2018-04-08T05:15:56.612Z,95410.89
2018-04-08T05:18:24.519Z,95410.89
2018-04-08T05:20:53.081Z,95416.45
2018-04-08T05:23:22.546Z,95408.91
2018-04-08T05:25:50.378Z,95410.40
2018-04-08T05:28:18.933Z,95417.12
2018-04-08T05:30:46.698Z,95417.78
2018-04-08T05:33:14.940Z,95412.99
2018-04-08T05:35:43.078Z,95415.70
2018-04-08T05:38:10.850Z,95418.27
2018-04-08T05:40:38.695Z,95419.08
2018-04-08T05:43:06.455Z,95422.07
2018-04-08T05:45:35.066Z,95421.52
2018-04-08T05:48:02.855Z,95426.45
2018-04-08T05:50:30.662Z,95419.09
2018-04-08T05:52:58.437Z,95416.19
2018-04-08T05:55:26.646Z,95419.56
2018-04-08T05:57:54.926Z,95423.83
2018-04-08T06:00:24.905Z,95420.59
2018-04-08T06:02:53.176Z,95424.05
2018-04-08T06:05:21.414Z,95424.05
2018-04-08T06:07:49.171Z,95416.34
2018-04-08T06:10:16.828Z,95426.88
2018-04-08T06:12:44.510Z,95428.35
2018-04-08T06:15:12.254Z,95430.45
2018-04-08T06:17:40.779Z,95425.88
2018-04-08T06:20:08.510Z,95431.88
2018-04-08T06:22:36.711Z,95435.24
2018-04-08T06:25:04.547Z,95431.73
2018-04-08T06:27:32.391Z,95432.59
2018-04-08T06:30:00.137Z,95429.27
2018-04-08T06:32:28.791Z,95438.38
2018-04-08T06:34:57.017Z,95437.48
2018-04-08T06:37:25.746Z,95433.11
2018-04-08T06:39:54.628Z,95433.41
2018-04-08T06:42:22.416Z,95436.55
2018-04-08T06:44:50.243Z,95435.77
2018-04-08T06:47:18.098Z,95434.66
2018-04-08T06:49:46.089Z,95431.66
2018-04-08T06:52:13.868Z,95430.63
2018-04-08T06:54:41.667Z,95430.30
2018-04-08T06:57:09.395Z,95431.83
2018-04-08T06:59:40.486Z,95431.30
2018-04-08T07:02:08.266Z,95432.53
2018-04-08T07:04:36.124Z,95434.09
2018-04-08T07:07:03.896Z,95434.63
2018-04-08T07:09:31.639Z,95432.12
2018-04-08T07:11:59.528Z,95434.41
2018-04-08T07:14:27.349Z,95428.87
2018-04-08T07:16:55.092Z,95427.44
2018-04-08T07:19:22.839Z,95428.00
2018-04-08T07:21:50.554Z,95426.30
2018-04-08T07:24:19.227Z,95423.84
2018-04-08T07:26:46.962Z,95429.04
2018-04-08T07:29:14.630Z,95427.23
2018-04-08T07:31:42.388Z,95423.16
2018-04-08T07:34:10.129Z,95430.18
2018-04-08T07:36:37.896Z,95429.66
2018-04-08T07:39:05.833Z,95432.91
2018-04-08T07:41:33.542Z,95429.06
2018-04-08T07:44:01.282Z,95429.95
2018-04-08T07:46:29.012Z,95433.06
2018-04-08T07:48:56.802Z,95426.55
2018-04-08T07:51:24.472Z,95419.51
2018-04-08T07:53:52.318Z,95414.64
2018-04-08T07:56:20.078Z,95412.47
2018-04-08T07:58:47.860Z,95413.46
2018-04-08T08:01:15.832Z,95409.93
2018-04-08T08:03:43.619Z,95411.75
2018-04-08T08:06:11.301Z,95411.44
2018-04-08T08:08:38.971Z,95404.78
2018-04-08T08:11:07.660Z,95407.19
2018-04-08T08:13:35.628Z,95396.33
2018-04-08T08:16:03.396Z,95401.85
2018-04-08T08:18:31.166Z,95401.66
2018-04-08T08:20:58.847Z,95399.14
2018-04-08T08:23:27.449Z,95406.28
2018-04-08T08:25:55.180Z,95405.19
2018-04-08T08:28:22.975Z,95403.77
2018-04-08T08:30:52.012Z,95389.91
2018-04-08T08:33:21.032Z,95396.50
2018-04-08T08:35:48.745Z,95386.90
2018-04-08T08:38:16.542Z,95388.05
2018-04-08T08:40:44.285Z,95381.47
2018-04-08T08:43:11.944Z,95379.45
2018-04-08T08:45:39.657Z,95374.45
2018-04-08T08:48:07.363Z,95370.53
2018-04-08T08:50:35.057Z,95372.82
2018-04-08T08:53:02.775Z,95366.33
2018-04-08T08:55:30.513Z,95364.28
2018-04-08T08:57:58.257Z,95365.06
2018-04-08T09:00:25.955Z,95365.73
2018-04-08T09:02:53.681Z,95357.96
2018-04-08T09:05:21.519Z,95358.09
2018-04-08T09:07:49.285Z,95349.77
2018-04-08T09:10:17.080Z,95347.80
2018-04-08T09:12:44.810Z,95347.55
2018-04-08T09:15:12.552Z,95348.34
2018-04-08T09:17:40.322Z,95343.95
2018-04-08T09:20:12.377Z,95347.75
2018-04-08T09:22:42.896Z,95345.34
2018-04-08T09:25:23.273Z,95343.44
2018-04-08T09:27:51.084Z,95341.24
2018-04-08T09:30:18.740Z,95334.44
2018-04-08T09:32:46.532Z,95334.61
2018-04-08T09:35:14.294Z,95321.94
2018-04-08T09:37:42.119Z,95319.52
2018-04-08T09:40:10.606Z,95321.73
2018-04-08T09:42:39.333Z,95318.25
2018-04-08T09:45:07.062Z,95317.35
2018-04-08T09:47:34.824Z,95307.69
2018-04-08T09:50:02.528Z,95312.84
2018-04-08T09:52:30.313Z,95304.80
2018-04-08T09:54:58.036Z,95311.39
2018-04-08T09:57:26.233Z,95293.95
2018-04-08T09:59:53.963Z,95298.75
2018-04-08T10:02:27.147Z,95290.06
2018-04-08T10:04:54.814Z,95291.33
2018-04-08T10:07:44.300Z,95281.14
2018-04-08T10:10:11.965Z,95284.16
2018-04-08T10:12:39.803Z,95284.07
2018-04-08T10:21:12.632Z,95278.02
2018-04-08T10:43:29.714Z,95258.06
2018-04-08T10:45:57.519Z,95260.53
2018-04-08T10:48:25.261Z,95259.11
2018-04-08T10:50:53.139Z,95252.27
2018-04-08T10:53:20.900Z,95251.67
2018-04-08T10:55:48.682Z,95243.67
2018-04-08T10:58:16.459Z,95241.50
2018-04-08T11:00:44.252Z,95249.76
2018-04-08T11:03:12.032Z,95244.70
2018-04-08T11:05:39.766Z,95241.47
2018-04-08T11:08:07.642Z,95233.95
2018-04-08T11:10:35.364Z,95240.09
2018-04-08T11:13:03.234Z,95243.66
2018-04-08T11:15:31.000Z,95237.87
2018-04-08T11:17:58.753Z,95236.85
2018-04-08T11:20:26.547Z,95224.38
2018-04-08T11:22:54.571Z,95222.06
2018-04-08T11:25:29.890Z,95222.34
2018-04-08T11:27:57.702Z,95225.30
2018-04-08T11:30:25.422Z,95216.95
2018-04-08T11:32:53.178Z,95220.72
2018-04-08T11:35:20.912Z,95212.80
2018-04-08T11:37:48.765Z,95206.85
2018-04-08T11:40:16.540Z,95193.58
2018-04-08T11:42:44.304Z,95199.54
2018-04-08T11:45:12.025Z,95199.70
2018-04-08T11:47:39.801Z,95201.53
2018-04-08T11:50:07.659Z,95195.63
2018-04-08T11:52:35.411Z,95201.20
2018-04-08T11:55:03.181Z,95188.30
2018-04-08T11:57:30.930Z,95191.61
2018-04-08T11:59:58.691Z,95191.36
2018-04-08T12:02:26.608Z,95187.08
2018-04-08T12:04:54.412Z,95187.90
2018-04-08T12:07:22.808Z,95185.23
2018-04-08T12:09:50.822Z,95177.20
2018-04-08T12:12:18.608Z,95180.14
2018-04-08T12:14:46.349Z,95178.30
2018-04-08T12:17:14.193Z,95180.72
2018-04-08T12:19:41.971Z,95167.78
2018-04-08T12:22:09.833Z,95165.86
2018-04-08T12:24:37.815Z,95165.23
2018-04-08T12:27:08.098Z,95162.75
2018-04-08T12:29:36.056Z,95156.98
2018-04-08T12:32:04.062Z,95161.45
2018-04-08T12:34:31.998Z,95153.79
2018-04-08T12:36:59.948Z,95154.27
2018-04-08T12:39:28.629Z,95158.21
2018-04-08T12:41:56.500Z,95151.39
2018-04-08T12:44:24.404Z,95148.29
2018-04-08T12:46:52.336Z,95147.02
2018-04-08T12:49:21.644Z,95143.30
2018-04-08T12:54:32.171Z,95134.58
2018-04-08T12:57:04.391Z,95126.69
2018-04-08T14:40:43.471Z,95079.70
2018-04-08T14:46:17.741Z,95085.55
2018-04-08T14:48:52.796Z,95076.34
2018-04-08T14:51:22.915Z,95079.69
2018-04-08T14:53:50.968Z,95072.80
2018-04-08T14:56:19.146Z,95081.08
2018-04-08T14:58:48.636Z,95077.56
2018-04-08T15:01:19.166Z,95077.23
2018-04-08T15:03:48.168Z,95082.00
2018-04-08T15:06:16.293Z,95076.45
2018-04-08T15:08:45.954Z,95078.64
2018-04-08T15:11:14.400Z,95079.16
2018-04-08T15:13:43.722Z,95078.25
2018-04-08T15:16:11.956Z,95080.34
2018-04-08T15:18:40.141Z,95076.95
2018-04-08T15:21:08.830Z,95076.05
2018-04-08T15:23:39.371Z,95069.41
2018-04-08T15:26:07.458Z,95076.37
2018-04-08T15:28:35.310Z,95077.87
2018-04-08T15:31:03.381Z,95074.87
2018-04-08T15:33:31.446Z,95077.70
2018-04-08T15:35:59.345Z,95078.88
2018-04-08T15:38:27.448Z,95078.98
2018-04-08T15:40:55.476Z,95078.13
2018-04-08T15:43:23.643Z,95076.70
2018-04-08T15:45:51.699Z,95080.91
2018-04-08T15:48:19.654Z,95077.78
2018-04-08T15:50:47.611Z,95082.27
2018-04-08T15:53:15.543Z,95079.14
2018-04-08T15:55:43.458Z,95074.30
2018-04-08T15:58:12.332Z,95081.87
2018-04-08T16:00:40.499Z,95084.24
2018-04-08T16:03:10.144Z,95082.35
2018-04-08T16:05:38.821Z,95085.11
2018-04-08T16:08:07.516Z,95089.34
2018-04-08T16:10:35.497Z,95082.66
2018-04-08T16:13:03.663Z,95079.59
2018-04-08T16:15:31.666Z,95085.46
2018-04-08T16:27:19.298Z,95091.18
2018-04-08T16:29:47.202Z,95093.78
2018-04-08T16:32:15.164Z,95094.05
2018-04-08T16:34:43.230Z,95099.97
2018-04-08T16:37:11.307Z,95095.34
2018-04-08T16:39:39.360Z,95101.17
2018-04-08T16:42:07.245Z,95097.71
2018-04-08T16:44:35.203Z,95104.58
2018-04-08T16:47:03.163Z,95098.47
2018-04-08T16:49:31.040Z,95101.11
2018-04-08T16:51:58.875Z,95097.65
2018-04-08T16:54:26.863Z,95104.52
2018-04-08T16:56:54.824Z,95104.80
2018-04-08T16:59:22.792Z,95103.05
2018-04-08T17:01:50.790Z,95097.63
2018-04-08T17:04:18.830Z,95101.45
2018-04-08T17:06:46.686Z,95103.30
2018-04-08T17:09:14.662Z,95107.73
2018-04-08T17:11:42.522Z,95110.41
2018-04-08T17:14:10.604Z,95108.02
2018-04-08T17:16:39.753Z,95114.66
2018-04-08T17:19:07.749Z,95117.54
2018-04-08T17:21:35.690Z,95117.02
2018-04-08T17:24:03.687Z,95125.11
2018-04-08T17:26:32.604Z,95130.44
2018-04-08T17:29:00.623Z,95129.38
2018-04-08T17:31:28.463Z,95124.52
2018-04-08T17:33:59.441Z,95128.38
2018-04-08T17:36:27.788Z,95134.41
2018-04-08T17:38:57.548Z,95145.83
2018-04-08T17:41:29.534Z,95144.98
2018-04-08T17:43:57.348Z,95148.46
2018-04-08T17:46:25.169Z,95150.73
2018-04-08T17:48:52.928Z,95151.20
2018-04-08T17:51:24.928Z,95154.19
2018-04-08T17:53:52.700Z,95159.34
2018-04-08T17:56:21.389Z,95167.06
2018-04-08T17:58:49.388Z,95168.56
2018-04-08T18:01:19.919Z,95170.17
2018-04-08T18:03:47.891Z,95174.88
2018-04-08T18:06:19.076Z,95185.20
2018-04-08T18:08:46.847Z,95179.28
2018-04-08T18:11:15.676Z,95185.48
2018-04-08T18:13:43.431Z,95188.16
2018-04-08T18:16:11.366Z,95191.94
2018-04-08T18:18:39.122Z,95189.86
2018-04-08T18:21:07.651Z,95194.62
2018-04-08T18:23:35.369Z,95191.50
2018-04-08T18:26:03.140Z,95196.92
2018-04-08T18:28:30.927Z,95196.38
2018-04-08T18:30:59.891Z,95194.00
2018-04-08T18:33:27.635Z,95196.94
2018-04-08T18:35:56.333Z,95202.00
2018-04-08T18:38:30.886Z,95196.45
2018-04-08T18:40:58.832Z,95202.53
2018-04-08T18:43:26.761Z,95203.83
2018-04-08T18:45:54.786Z,95201.20
2018-04-08T18:48:23.296Z,95200.55
2018-04-08T18:50:51.036Z,95207.19
2018-04-08T18:53:19.602Z,95206.16
2018-04-08T18:55:47.341Z,95207.91
2018-04-08T18:58:15.016Z,95202.49
2018-04-08T19:00:42.752Z,95204.62
2018-04-08T19:03:11.116Z,95204.23
2018-04-08T19:05:39.609Z,95194.75
2018-04-08T19:08:07.377Z,95207.00
2018-04-08T19:10:35.199Z,95203.16
2018-04-08T19:13:03.007Z,95202.86
2018-04-08T19:15:33.210Z,95203.82
2018-04-08T19:18:04.951Z,95197.06
2018-04-08T19:20:33.755Z,95199.56
2018-04-08T19:23:02.362Z,95197.98
2018-04-08T19:25:30.860Z,95200.64
2018-04-08T19:28:00.016Z,95198.16
2018-04-08T19:30:27.856Z,95203.68
2018-04-08T19:32:55.528Z,95203.12
2018-04-08T19:35:23.316Z,95197.33
2018-04-08T19:37:52.048Z,95198.27
2018-04-08T19:40:19.889Z,95197.73
2018-04-08T19:42:48.571Z,95190.50
2018-04-08T19:45:16.334Z,95192.58
2018-04-08T19:47:44.049Z,95190.45
2018-04-08T19:50:12.638Z,95196.27
2018-04-08T19:52:40.414Z,95196.54
2018-04-08T19:55:09.402Z,95199.62
2018-04-08T19:57:37.176Z,95198.23
2018-04-08T20:00:05.901Z,95202.97
2018-04-08T20:02:33.605Z,95201.94
2018-04-08T20:05:01.930Z,95205.21
2018-04-08T20:07:29.696Z,95199.43
2018-04-08T20:09:57.615Z,95199.97
2018-04-08T20:12:25.284Z,95206.61
2018-04-08T20:14:53.014Z,95203.12
2018-04-08T20:17:20.736Z,95201.66
2018-04-08T20:19:48.485Z,95204.80
2018-04-08T20:22:16.225Z,95206.78
2018-04-08T20:24:43.908Z,95206.11
2018-04-08T20:27:11.693Z,95203.22
2018-04-08T20:29:39.377Z,95203.59
2018-04-08T20:32:07.110Z,95205.30
2018-04-08T20:34:34.829Z,95206.98
2018-04-08T20:37:02.660Z,95203.17
2018-04-08T20:39:30.396Z,95201.48
2018-04-08T20:41:58.121Z,95201.59
2018-04-08T20:44:25.792Z,95201.52
2018-04-08T20:46:54.197Z,95195.00
2018-04-08T20:49:21.914Z,95199.34
2018-04-08T20:51:49.596Z,95197.38
2018-04-08T21:01:02.544Z,95198.90
2018-04-08T21:03:30.257Z,95205.48
2018-04-08T21:05:57.955Z,95198.03
2018-04-08T21:08:25.692Z,95190.77
2018-04-08T21:10:53.419Z,95197.83
2018-04-08T21:13:21.176Z,95196.47
2018-04-08T21:15:48.859Z,95194.82
2018-04-08T21:18:16.635Z,95199.53
2018-04-08T21:20:45.013Z,95189.45
2018-04-08T21:23:12.728Z,95198.77
2018-04-08T21:25:40.515Z,95190.22
2018-04-08T21:28:08.295Z,95191.77
2018-04-08T21:30:36.037Z,95201.94
2018-04-08T21:33:03.760Z,95202.03
2018-04-08T21:35:31.573Z,95206.19
2018-04-08T21:37:59.319Z,95209.06
2018-04-08T21:40:26.984Z,95211.58
2018-04-08T21:42:58.182Z,95219.88
2018-04-08T21:45:26.056Z,95218.55
2018-04-08T21:47:53.753Z,95218.68
2018-04-08T21:50:21.474Z,95205.57
2018-04-08T21:52:49.251Z,95207.26
2018-04-08T21:55:16.984Z,95205.91
2018-04-08T21:57:45.434Z,95206.94
2018-04-08T22:00:13.242Z,95211.30
2018-04-08T22:02:40.993Z,95218.91
2018-04-08T22:05:08.701Z,95212.28
2018-04-08T22:07:36.409Z,95212.75
2018-04-08T22:10:04.197Z,95213.89
2018-04-08T22:12:31.926Z,95208.72
2018-04-08T22:14:59.739Z,95202.17
2018-04-08T22:17:27.523Z,95185.02
2018-04-08T22:19:55.212Z,95187.41
2018-04-08T22:22:22.939Z,95182.16
2018-04-08T22:24:50.611Z,95190.49
2018-04-08T22:27:18.345Z,95190.34
2018-04-08T22:29:46.112Z,95189.43
2018-04-08T22:32:13.863Z,95185.91
2018-04-08T22:34:41.992Z,95185.80
2018-04-08T22:37:09.673Z,95174.97
2018-04-08T22:39:37.389Z,95171.55
2018-04-08T22:42:05.110Z,95164.82
2018-04-08T22:44:32.901Z,95172.28
2018-04-08T22:47:00.643Z,95168.11
2018-04-08T22:49:28.340Z,95167.80
2018-04-08T22:51:56.065Z,95170.81
2018-04-08T22:54:23.844Z,95162.06
2018-04-08T22:56:51.543Z,95163.29
2018-04-08T22:59:19.259Z,95157.48
2018-04-08T23:01:46.937Z,95156.29
2018-04-08T23:04:14.689Z,95151.38
2018-04-08T23:06:42.441Z,95147.39
2018-04-08T23:09:10.206Z,95146.34
2018-04-08T23:11:38.102Z,95144.34
2018-04-08T23:14:05.862Z,95148.33
2018-04-08T23:16:33.606Z,95149.56
2018-04-08T23:19:01.349Z,95150.27
2018-04-08T23:21:29.222Z,95146.19
2018-04-08T23:23:57.017Z,95151.48
2018-04-08T23:26:24.757Z,95154.68
2018-04-08T23:28:52.472Z,95148.72
2018-04-08T23:31:20.175Z,95147.52
2018-04-08T23:33:47.898Z,95150.83
2018-04-08T23:36:15.743Z,95151.06
2018-04-08T23:38:43.593Z,95143.52
2018-04-08T23:41:11.296Z,95145.46
2018-04-08T23:43:39.042Z,95144.52
2018-04-08T23:46:06.953Z,95144.48
2018-04-08T23:48:34.701Z,95144.16
2018-04-08T23:51:02.410Z,95143.70
2018-04-08T23:53:30.104Z,95147.04
2018-04-08T23:55:57.952Z,95139.56
2018-04-08T23:58:25.776Z,95138.09
